sensor_id;sensor_type;location;lat;lon;timestamp;pressure;altitude;pressure_sealevel;temperature;humidity
68656;BME280;55638;51.122;13.606;2023-02-03T00:00:39;100864.81;;;2.18;62.50
68656;BME280;55638;51.122;13.606;2023-02-03T00:02:11;100859.47;;;2.19;62.67
68656;BME280;55638;51.122;13.606;2023-02-03T00:03:43;100859.38;;;2.21;62.62
68656;BME280;55638;51.122;13.606;2023-02-03T00:05:15;100862.00;;;2.22;62.57
68656;BME280;55638;51.122;13.606;2023-02-03T00:06:46;100850.44;;;2.23;62.43
68656;BME280;55638;51.122;13.606;2023-02-03T00:08:18;100853.91;;;2.25;62.44
68656;BME280;55638;51.122;13.606;2023-02-03T00:09:50;100853.84;;;2.27;62.68
68656;BME280;55638;51.122;13.606;2023-02-03T00:11:22;100855.59;;;2.28;62.47
68656;BME280;55638;51.122;13.606;2023-02-03T00:12:54;100854.66;;;2.29;62.63
68656;BME280;55638;51.122;13.606;2023-02-03T00:14:28;100853.69;;;2.32;62.63
68656;BME280;55638;51.122;13.606;2023-02-03T00:15:59;100848.28;;;2.33;62.61
68656;BME280;55638;51.122;13.606;2023-02-03T00:17:32;100849.09;;;2.35;62.64
68656;BME280;55638;51.122;13.606;2023-02-03T00:19:04;100843.69;;;2.37;62.49
68656;BME280;55638;51.122;13.606;2023-02-03T00:20:36;100848.03;;;2.39;62.64
68656;BME280;55638;51.122;13.606;2023-02-03T00:22:07;100846.25;;;2.40;62.47
68656;BME280;55638;51.122;13.606;2023-02-03T00:23:42;100847.97;;;2.41;62.48
68656;BME280;55638;51.122;13.606;2023-02-03T00:25:14;100844.31;;;2.43;62.42
68656;BME280;55638;51.122;13.606;2023-02-03T00:26:46;100841.66;;;2.43;62.47
68656;BME280;55638;51.122;13.606;2023-02-03T00:28:18;100834.50;;;2.45;62.55
68656;BME280;55638;51.122;13.606;2023-02-03T00:29:50;100840.69;;;2.46;62.56
68656;BME280;55638;51.122;13.606;2023-02-03T00:31:23;100838.88;;;2.46;62.41
68656;BME280;55638;51.122;13.606;2023-02-03T00:32:55;100837.03;;;2.48;62.58
68656;BME280;55638;51.122;13.606;2023-02-03T00:34:28;100837.84;;;2.50;62.52
68656;BME280;55638;51.122;13.606;2023-02-03T00:36:05;100830.66;;;2.53;62.33
68656;BME280;55638;51.122;13.606;2023-02-03T00:37:37;100828.94;;;2.52;62.49
68656;BME280;55638;51.122;13.606;2023-02-03T00:39:08;100821.75;;;2.54;62.47
68656;BME280;55638;51.122;13.606;2023-02-03T00:40:40;100818.19;;;2.55;62.22
68656;BME280;55638;51.122;13.606;2023-02-03T00:42:12;100820.84;;;2.55;62.39
68656;BME280;55638;51.122;13.606;2023-02-03T00:43:44;100819.03;;;2.55;62.30
68656;BME280;55638;51.122;13.606;2023-02-03T00:45:15;100814.56;;;2.56;62.34
68656;BME280;55638;51.122;13.606;2023-02-03T00:46:47;100806.53;;;2.57;62.39
68656;BME280;55638;51.122;13.606;2023-02-03T00:48:20;100801.16;;;2.59;62.25
68656;BME280;55638;51.122;13.606;2023-02-03T00:49:51;100797.66;;;2.57;62.18
68656;BME280;55638;51.122;13.606;2023-02-03T00:51:23;100788.78;;;2.58;62.11
68656;BME280;55638;51.122;13.606;2023-02-03T00:52:58;100792.34;;;2.57;62.10
68656;BME280;55638;51.122;13.606;2023-02-03T00:54:30;100787.03;;;2.57;62.27
68656;BME280;55638;51.122;13.606;2023-02-03T00:56:04;100788.81;;;2.56;62.14
68656;BME280;55638;51.122;13.606;2023-02-03T00:57:42;100784.38;;;2.57;62.13
68656;BME280;55638;51.122;13.606;2023-02-03T00:59:14;100777.31;;;2.56;62.16
68656;BME280;55638;51.122;13.606;2023-02-03T01:00:46;100779.03;;;2.57;62.16
68656;BME280;55638;51.122;13.606;2023-02-03T01:02:18;100775.50;;;2.56;62.34
68656;BME280;55638;51.122;13.606;2023-02-03T01:03:50;100774.66;;;2.56;62.38
68656;BME280;55638;51.122;13.606;2023-02-03T01:05:22;100771.13;;;2.55;62.23
68656;BME280;55638;51.122;13.606;2023-02-03T01:06:54;100772.00;;;2.56;62.37
68656;BME280;55638;51.122;13.606;2023-02-03T01:08:29;100764.09;;;2.54;62.23
68656;BME280;55638;51.122;13.606;2023-02-03T01:10:03;100764.94;;;2.55;62.23
68656;BME280;55638;51.122;13.606;2023-02-03T01:11:36;100759.63;;;2.55;62.19
68656;BME280;55638;51.122;13.606;2023-02-03T01:13:08;100759.63;;;2.55;62.19
68656;BME280;55638;51.122;13.606;2023-02-03T01:14:40;100750.78;;;2.54;62.34
68656;BME280;55638;51.122;13.606;2023-02-03T01:16:14;100744.56;;;2.54;62.25
68656;BME280;55638;51.122;13.606;2023-02-03T01:17:46;100743.69;;;2.53;62.09
68656;BME280;55638;51.122;13.606;2023-02-03T01:19:18;100741.97;;;2.52;62.21
68656;BME280;55638;51.122;13.606;2023-02-03T01:20:50;100745.50;;;2.53;61.94
68656;BME280;55638;51.122;13.606;2023-02-03T01:22:21;100744.69;;;2.50;61.93
68656;BME280;55638;51.122;13.606;2023-02-03T01:23:54;100729.75;;;2.48;62.13
68656;BME280;55638;51.122;13.606;2023-02-03T01:25:26;100729.78;;;2.46;62.17
68656;BME280;55638;51.122;13.606;2023-02-03T01:26:57;100725.41;;;2.45;62.02
68656;BME280;55638;51.122;13.606;2023-02-03T01:28:31;100718.41;;;2.43;62.17
68656;BME280;55638;51.122;13.606;2023-02-03T01:30:03;100722.88;;;2.42;61.97
68656;BME280;55638;51.122;13.606;2023-02-03T01:31:38;100713.16;;;2.41;62.00
68656;BME280;55638;51.122;13.606;2023-02-03T01:33:10;100704.38;;;2.39;62.08
68656;BME280;55638;51.122;13.606;2023-02-03T01:34:42;100701.81;;;2.36;62.08
68656;BME280;55638;51.122;13.606;2023-02-03T01:36:15;100693.94;;;2.35;61.92
68656;BME280;55638;51.122;13.606;2023-02-03T01:37:47;100689.50;;;2.34;62.09
68656;BME280;55638;51.122;13.606;2023-02-03T01:39:19;100678.94;;;2.32;61.94
68656;BME280;55638;51.122;13.606;2023-02-03T01:40:51;100674.53;;;2.31;61.98
68656;BME280;55638;51.122;13.606;2023-02-03T01:42:23;100676.47;;;2.28;62.21
68656;BME280;55638;51.122;13.606;2023-02-03T01:43:57;100683.59;;;2.27;62.13
68656;BME280;55638;51.122;13.606;2023-02-03T01:45:29;100685.47;;;2.25;62.31
68656;BME280;55638;51.122;13.606;2023-02-03T01:47:02;100688.16;;;2.23;62.24
68656;BME280;55638;51.122;13.606;2023-02-03T01:48:36;100685.59;;;2.22;62.31
68656;BME280;55638;51.122;13.606;2023-02-03T01:50:17;100683.03;;;2.19;62.39
68656;BME280;55638;51.122;13.606;2023-02-03T01:51:51;100682.09;;;2.20;62.48
68656;BME280;55638;51.122;13.606;2023-02-03T01:53:24;100682.19;;;2.18;62.48
68656;BME280;55638;51.122;13.606;2023-02-03T01:54:57;100674.25;;;2.17;62.53
68656;BME280;55638;51.122;13.606;2023-02-03T01:56:34;100669.88;;;2.16;62.53
68656;BME280;55638;51.122;13.606;2023-02-03T01:58:23;100663.72;;;2.14;62.51
68656;BME280;55638;51.122;13.606;2023-02-03T01:59:57;100653.97;;;2.14;62.33
68656;BME280;55638;51.122;13.606;2023-02-03T02:01:31;100653.09;;;2.14;62.31
68656;BME280;55638;51.122;13.606;2023-02-03T02:03:04;100648.63;;;2.14;62.21
68656;BME280;55638;51.122;13.606;2023-02-03T02:04:46;100636.41;;;2.10;62.61
68656;BME280;55638;51.122;13.606;2023-02-03T02:06:21;100635.41;;;2.13;62.30
68656;BME280;55638;51.122;13.606;2023-02-03T02:07:55;100625.97;;;2.06;62.52
68656;BME280;55638;51.122;13.606;2023-02-03T02:09:28;100627.69;;;2.07;62.61
68656;BME280;55638;51.122;13.606;2023-02-03T02:11:00;100619.75;;;2.05;62.61
68656;BME280;55638;51.122;13.606;2023-02-03T02:12:32;100618.03;;;2.04;62.67
68656;BME280;55638;51.122;13.606;2023-02-03T02:14:04;100611.78;;;2.05;62.71
68656;BME280;55638;51.122;13.606;2023-02-03T02:21:57;100600.41;;;2.01;63.17
68656;BME280;55638;51.122;13.606;2023-02-03T02:25:45;100609.69;;;1.91;63.52
68656;BME280;55638;51.122;13.606;2023-02-03T02:29:17;100601.56;;;1.96;63.19
68656;BME280;55638;51.122;13.606;2023-02-03T02:33:41;100587.44;;;1.94;63.54
68656;BME280;55638;51.122;13.606;2023-02-03T02:39:27;100577.53;;;1.97;63.81
68656;BME280;55638;51.122;13.606;2023-02-03T02:41:23;100571.16;;;2.01;63.58
68656;BME280;55638;51.122;13.606;2023-02-03T02:44:40;100557.72;;;2.05;63.80
68656;BME280;55638;51.122;13.606;2023-02-03T02:46:19;100553.28;;;2.05;63.80
68656;BME280;55638;51.122;13.606;2023-02-03T02:48:01;100551.44;;;2.07;63.84
68656;BME280;55638;51.122;13.606;2023-02-03T02:49:41;100542.47;;;2.10;63.81
68656;BME280;55638;51.122;13.606;2023-02-03T02:51:15;100539.69;;;2.13;63.53
68656;BME280;55638;51.122;13.606;2023-02-03T02:52:48;100528.09;;;2.14;63.70
68656;BME280;55638;51.122;13.606;2023-02-03T02:54:24;100520.13;;;2.14;63.88
68656;BME280;55638;51.122;13.606;2023-02-03T02:55:59;100519.13;;;2.16;63.74
68656;BME280;55638;51.122;13.606;2023-02-03T02:57:34;100515.53;;;2.17;63.81
68656;BME280;55638;51.122;13.606;2023-02-03T02:59:08;100517.16;;;2.21;63.70
68656;BME280;55638;51.122;13.606;2023-02-03T03:00:40;100506.50;;;2.21;63.61
68656;BME280;55638;51.122;13.606;2023-02-03T03:02:14;100506.34;;;2.24;63.77
68656;BME280;55638;51.122;13.606;2023-02-03T03:03:45;100502.63;;;2.29;63.50
68656;BME280;55638;51.122;13.606;2023-02-03T03:05:17;100497.25;;;2.30;63.44
68656;BME280;55638;51.122;13.606;2023-02-03T03:06:59;100486.53;;;2.32;63.80
68656;BME280;55638;51.122;13.606;2023-02-03T03:08:46;100485.66;;;2.31;63.87
68656;BME280;55638;51.122;13.606;2023-02-03T03:10:24;100488.19;;;2.34;63.96
68656;BME280;55638;51.122;13.606;2023-02-03T03:12:04;100479.28;;;2.35;63.90
68656;BME280;55638;51.122;13.606;2023-02-03T03:13:45;100474.75;;;2.37;64.16
68656;BME280;55638;51.122;13.606;2023-02-03T03:15:24;100473.88;;;2.37;64.30
68656;BME280;55638;51.122;13.606;2023-02-03T03:17:00;100475.47;;;2.41;64.04
68656;BME280;55638;51.122;13.606;2023-02-03T03:18:36;100473.69;;;2.41;64.46
68656;BME280;55638;51.122;13.606;2023-02-03T03:20:13;100473.47;;;2.46;64.20
68656;BME280;55638;51.122;13.606;2023-02-03T03:21:56;100462.78;;;2.47;64.49
68656;BME280;55638;51.122;13.606;2023-02-03T03:23:32;100467.88;;;2.52;64.17
68656;BME280;55638;51.122;13.606;2023-02-03T03:25:17;100468.69;;;2.54;64.42
68656;BME280;55638;51.122;13.606;2023-02-03T03:26:57;100471.19;;;2.57;64.38
68656;BME280;55638;51.122;13.606;2023-02-03T03:28:39;100471.84;;;2.62;64.37
68656;BME280;55638;51.122;13.606;2023-02-03T03:30:25;100470.03;;;2.63;64.77
68656;BME280;55638;51.122;13.606;2023-02-03T03:31:58;100468.75;;;2.71;64.52
68656;BME280;55638;51.122;13.606;2023-02-03T03:33:31;100467.75;;;2.74;64.58
68656;BME280;55638;51.122;13.606;2023-02-03T03:35:03;100467.53;;;2.79;64.82
68656;BME280;55638;51.122;13.606;2023-02-03T03:37:00;100467.47;;;2.80;65.28
68656;BME280;55638;51.122;13.606;2023-02-03T03:38:38;100465.31;;;2.88;65.15
68656;BME280;55638;51.122;13.606;2023-02-03T03:40:24;100451.78;;;2.93;65.26
68656;BME280;55638;51.122;13.606;2023-02-03T03:42:20;100464.78;;;2.99;65.37
68656;BME280;55638;51.122;13.606;2023-02-03T03:43:55;100462.53;;;3.09;65.09
68656;BME280;55638;51.122;13.606;2023-02-03T03:45:38;100463.25;;;3.12;65.50
68656;BME280;55638;51.122;13.606;2023-02-03T03:47:27;100459.44;;;3.18;65.47
68656;BME280;55638;51.122;13.606;2023-02-03T03:49:03;100459.94;;;3.26;65.27
68656;BME280;55638;51.122;13.606;2023-02-03T03:50:38;100458.69;;;3.33;65.07
68656;BME280;55638;51.122;13.606;2023-02-03T03:52:17;100454.94;;;3.37;65.21
68656;BME280;55638;51.122;13.606;2023-02-03T03:53:51;100453.72;;;3.45;65.20
68656;BME280;55638;51.122;13.606;2023-02-03T03:55:26;100454.22;;;3.53;65.12
68656;BME280;55638;51.122;13.606;2023-02-03T03:57:11;100438.13;;;3.54;65.16
68656;BME280;55638;51.122;13.606;2023-02-03T03:58:47;100430.53;;;3.64;65.22
68656;BME280;55638;51.122;13.606;2023-02-03T04:00:22;100422.31;;;3.69;65.38
68656;BME280;55638;51.122;13.606;2023-02-03T04:01:58;100419.34;;;3.75;65.35
68656;BME280;55638;51.122;13.606;2023-02-03T04:03:41;100416.44;;;3.79;65.42
68656;BME280;55638;51.122;13.606;2023-02-03T04:05:17;100404.66;;;3.83;65.28
68656;BME280;55638;51.122;13.606;2023-02-03T04:06:49;100389.13;;;3.92;65.32
68656;BME280;55638;51.122;13.606;2023-02-03T04:08:23;100386.19;;;3.96;65.27
68656;BME280;55638;51.122;13.606;2023-02-03T04:09:55;100377.13;;;4.00;65.21
68656;BME280;55638;51.122;13.606;2023-02-03T04:11:26;100366.19;;;4.05;65.26
68656;BME280;55638;51.122;13.606;2023-02-03T04:13:17;100365.88;;;4.11;65.05
68656;BME280;55638;51.122;13.606;2023-02-03T04:14:50;100377.22;;;4.15;65.20
68656;BME280;55638;51.122;13.606;2023-02-03T04:16:22;100369.91;;;4.18;65.05
68656;BME280;55638;51.122;13.606;2023-02-03T04:17:54;100375.00;;;4.23;64.99
68656;BME280;55638;51.122;13.606;2023-02-03T04:19:27;100364.09;;;4.27;65.09
68656;BME280;55638;51.122;13.606;2023-02-03T04:20:59;100368.31;;;4.31;64.88
68656;BME280;55638;51.122;13.606;2023-02-03T04:22:31;100377.00;;;4.35;65.08
68656;BME280;55638;51.122;13.606;2023-02-03T04:24:03;100368.75;;;4.40;64.93
68656;BME280;55638;51.122;13.606;2023-02-03T04:25:35;100359.81;;;4.41;65.11
68656;BME280;55638;51.122;13.606;2023-02-03T04:27:07;100367.53;;;4.45;64.95
68656;BME280;55638;51.122;13.606;2023-02-03T04:28:39;100355.84;;;4.48;64.75
68656;BME280;55638;51.122;13.606;2023-02-03T04:30:11;100375.16;;;4.53;64.93
68656;BME280;55638;51.122;13.606;2023-02-03T04:31:43;100367.88;;;4.55;64.86
68656;BME280;55638;51.122;13.606;2023-02-03T04:33:15;100370.50;;;4.56;64.87
68656;BME280;55638;51.122;13.606;2023-02-03T04:34:47;100371.97;;;4.62;64.77
68656;BME280;55638;51.122;13.606;2023-02-03T04:36:19;100370.84;;;4.66;64.71
68656;BME280;55638;51.122;13.606;2023-02-03T04:37:51;100373.41;;;4.68;64.68
68656;BME280;55638;51.122;13.606;2023-02-03T04:39:22;100375.06;;;4.70;64.63
68656;BME280;55638;51.122;13.606;2023-02-03T04:40:54;100373.06;;;4.74;64.75
68656;BME280;55638;51.122;13.606;2023-02-03T04:42:26;100373.84;;;4.76;64.67
68656;BME280;55638;51.122;13.606;2023-02-03T04:43:57;100365.75;;;4.77;64.67
68656;BME280;55638;51.122;13.606;2023-02-03T04:45:29;100367.31;;;4.81;64.61
68656;BME280;55638;51.122;13.606;2023-02-03T04:47:01;100353.97;;;4.81;64.63
68656;BME280;55638;51.122;13.606;2023-02-03T04:48:33;100355.56;;;4.84;64.69
68656;BME280;55638;51.122;13.606;2023-02-03T04:50:06;100360.75;;;4.87;64.42
68656;BME280;55638;51.122;13.606;2023-02-03T04:51:38;100365.84;;;4.92;64.50
68656;BME280;55638;51.122;13.606;2023-02-03T04:53:10;100367.53;;;4.93;64.52
68656;BME280;55638;51.122;13.606;2023-02-03T04:54:41;100367.44;;;4.94;64.48
68656;BME280;55638;51.122;13.606;2023-02-03T04:56:13;100369.94;;;4.97;64.43
68656;BME280;55638;51.122;13.606;2023-02-03T04:57:46;100370.84;;;4.98;64.40
68656;BME280;55638;51.122;13.606;2023-02-03T04:59:18;100370.66;;;5.01;64.44
68656;BME280;55638;51.122;13.606;2023-02-03T05:00:50;100371.59;;;5.00;64.46
68656;BME280;55638;51.122;13.606;2023-02-03T05:02:22;100370.66;;;5.01;64.46
68656;BME280;55638;51.122;13.606;2023-02-03T05:03:53;100366.16;;;5.01;64.42
68656;BME280;55638;51.122;13.606;2023-02-03T05:05:25;100358.84;;;5.05;64.46
68656;BME280;55638;51.122;13.606;2023-02-03T05:06:57;100364.06;;;5.06;64.31
68656;BME280;55638;51.122;13.606;2023-02-03T05:08:29;100364.00;;;5.08;64.18
68656;BME280;55638;51.122;13.606;2023-02-03T05:10:01;100352.47;;;5.07;64.27
68656;BME280;55638;51.122;13.606;2023-02-03T05:11:32;100360.28;;;5.11;64.37
68656;BME280;55638;51.122;13.606;2023-02-03T05:13:04;100346.06;;;5.10;64.24
68656;BME280;55638;51.122;13.606;2023-02-03T05:14:36;100346.84;;;5.12;64.16
68656;BME280;55638;51.122;13.606;2023-02-03T05:16:08;100332.50;;;5.13;64.20
68656;BME280;55638;51.122;13.606;2023-02-03T05:17:40;100340.53;;;5.13;64.12
68656;BME280;55638;51.122;13.606;2023-02-03T05:19:12;100337.84;;;5.13;64.38
68656;BME280;55638;51.122;13.606;2023-02-03T05:20:44;100348.38;;;5.16;64.33
68656;BME280;55638;51.122;13.606;2023-02-03T05:22:15;100329.66;;;5.16;64.17
68656;BME280;55638;51.122;13.606;2023-02-03T05:23:47;100323.38;;;5.17;64.36
68656;BME280;55638;51.122;13.606;2023-02-03T05:25:19;100323.28;;;5.19;64.10
68656;BME280;55638;51.122;13.606;2023-02-03T05:26:51;100316.13;;;5.19;64.34
68656;BME280;55638;51.122;13.606;2023-02-03T05:28:22;100324.13;;;5.19;64.15
68656;BME280;55638;51.122;13.606;2023-02-03T05:29:54;100307.94;;;5.22;64.26
68656;BME280;55638;51.122;13.606;2023-02-03T05:31:26;100306.22;;;5.21;64.00
68656;BME280;55638;51.122;13.606;2023-02-03T05:32:57;100298.94;;;5.23;64.07
68656;BME280;55638;51.122;13.606;2023-02-03T05:34:29;100289.22;;;5.22;64.06
68656;BME280;55638;51.122;13.606;2023-02-03T05:36:01;100290.06;;;5.23;64.29
68656;BME280;55638;51.122;13.606;2023-02-03T05:37:33;100303.38;;;5.24;63.97
68656;BME280;55638;51.122;13.606;2023-02-03T05:39:04;100314.84;;;5.26;64.02
68656;BME280;55638;51.122;13.606;2023-02-03T05:40:36;100311.22;;;5.27;64.00
68656;BME280;55638;51.122;13.606;2023-02-03T05:42:27;100305.88;;;5.27;63.95
68656;BME280;55638;51.122;13.606;2023-02-03T05:43:58;100315.63;;;5.28;64.14
68656;BME280;55638;51.122;13.606;2023-02-03T05:45:30;100307.50;;;5.30;64.02
68656;BME280;55638;51.122;13.606;2023-02-03T05:47:02;100303.88;;;5.31;64.08
68656;BME280;55638;51.122;13.606;2023-02-03T05:48:34;100285.94;;;5.33;64.05
68656;BME280;55638;51.122;13.606;2023-02-03T05:50:06;100298.34;;;5.34;64.11
68656;BME280;55638;51.122;13.606;2023-02-03T05:51:39;100309.06;;;5.34;64.04
68656;BME280;55638;51.122;13.606;2023-02-03T05:53:11;100311.63;;;5.36;64.09
68656;BME280;55638;51.122;13.606;2023-02-03T05:54:42;100323.09;;;5.38;64.09
68656;BME280;55638;51.122;13.606;2023-02-03T05:56:14;100320.50;;;5.36;64.11
68656;BME280;55638;51.122;13.606;2023-02-03T05:57:46;100316.97;;;5.36;64.01
68656;BME280;55638;51.122;13.606;2023-02-03T05:59:18;100310.59;;;5.38;64.04
68656;BME280;55638;51.122;13.606;2023-02-03T06:00:51;100314.13;;;5.39;64.02
68656;BME280;55638;51.122;13.606;2023-02-03T06:02:23;100307.81;;;5.40;64.08
68656;BME280;55638;51.122;13.606;2023-02-03T06:03:55;100303.34;;;5.40;63.87
68656;BME280;55638;51.122;13.606;2023-02-03T06:05:28;100297.09;;;5.40;64.01
68656;BME280;55638;51.122;13.606;2023-02-03T06:07:00;100290.84;;;5.41;64.18
68656;BME280;55638;51.122;13.606;2023-02-03T06:08:32;100304.09;;;5.42;63.88
68656;BME280;55638;51.122;13.606;2023-02-03T06:10:04;100307.63;;;5.43;63.99
68656;BME280;55638;51.122;13.606;2023-02-03T06:11:36;100300.47;;;5.43;63.93
68656;BME280;55638;51.122;13.606;2023-02-03T06:13:14;100296.94;;;5.43;63.92
68656;BME280;55638;51.122;13.606;2023-02-03T06:14:46;100290.66;;;5.44;64.13
68656;BME280;55638;51.122;13.606;2023-02-03T06:16:18;100293.31;;;5.44;64.10
68656;BME280;55638;51.122;13.606;2023-02-03T06:17:50;100291.41;;;5.46;64.10
68656;BME280;55638;51.122;13.606;2023-02-03T06:19:22;100285.00;;;5.48;64.04
68656;BME280;55638;51.122;13.606;2023-02-03T06:20:54;100280.50;;;5.49;63.94
68656;BME280;55638;51.122;13.606;2023-02-03T06:22:26;100277.94;;;5.47;63.93
68656;BME280;55638;51.122;13.606;2023-02-03T06:23:57;100271.63;;;5.48;64.15
68656;BME280;55638;51.122;13.606;2023-02-03T06:25:29;100273.47;;;5.48;64.00
68656;BME280;55638;51.122;13.606;2023-02-03T06:27:03;100270.59;;;5.51;64.06
68656;BME280;55638;51.122;13.606;2023-02-03T06:28:35;100275.84;;;5.52;63.90
68656;BME280;55638;51.122;13.606;2023-02-03T06:30:09;100266.97;;;5.52;63.84
68656;BME280;55638;51.122;13.606;2023-02-03T06:31:41;100269.63;;;5.52;64.11
68656;BME280;55638;51.122;13.606;2023-02-03T06:33:13;100267.75;;;5.54;63.81
68656;BME280;55638;51.122;13.606;2023-02-03T06:34:45;100265.91;;;5.55;64.09
68656;BME280;55638;51.122;13.606;2023-02-03T06:36:17;100269.44;;;5.55;64.08
68656;BME280;55638;51.122;13.606;2023-02-03T06:37:49;100277.41;;;5.57;63.92
68656;BME280;55638;51.122;13.606;2023-02-03T06:39:20;100269.25;;;5.58;63.97
68656;BME280;55638;51.122;13.606;2023-02-03T06:40:52;100269.25;;;5.58;64.13
68656;BME280;55638;51.122;13.606;2023-02-03T06:42:24;100255.81;;;5.60;64.14
68656;BME280;55638;51.122;13.606;2023-02-03T06:43:56;100258.50;;;5.60;64.04
68656;BME280;55638;51.122;13.606;2023-02-03T06:45:28;100252.06;;;5.62;63.95
68656;BME280;55638;51.122;13.606;2023-02-03T06:46:59;100252.06;;;5.62;64.02
68656;BME280;55638;51.122;13.606;2023-02-03T06:48:33;100251.03;;;5.65;64.05
68656;BME280;55638;51.122;13.606;2023-02-03T06:50:05;100248.34;;;5.65;64.08
68656;BME280;55638;51.122;13.606;2023-02-03T06:51:37;100253.63;;;5.66;64.05
68656;BME280;55638;51.122;13.606;2023-02-03T06:53:09;100238.25;;;5.70;64.02
68656;BME280;55638;51.122;13.606;2023-02-03T06:54:41;100236.31;;;5.72;63.89
68656;BME280;55638;51.122;13.606;2023-02-03T06:56:12;100225.72;;;5.70;63.77
68656;BME280;55638;51.122;13.606;2023-02-03T06:57:45;100228.41;;;5.70;63.88
68656;BME280;55638;51.122;13.606;2023-02-03T06:59:17;100225.72;;;5.70;63.76
68656;BME280;55638;51.122;13.606;2023-02-03T07:00:49;100217.69;;;5.70;63.78
68656;BME280;55638;51.122;13.606;2023-02-03T07:02:22;100223.03;;;5.70;63.75
68656;BME280;55638;51.122;13.606;2023-02-03T07:03:54;100216.72;;;5.71;63.76
68656;BME280;55638;51.122;13.606;2023-02-03T07:05:28;100207.78;;;5.72;63.68
68656;BME280;55638;51.122;13.606;2023-02-03T07:07:00;100190.75;;;5.73;63.71
68656;BME280;55638;51.122;13.606;2023-02-03T07:08:32;100203.16;;;5.74;63.83
68656;BME280;55638;51.122;13.606;2023-02-03T07:10:05;100202.44;;;5.72;63.75
68656;BME280;55638;51.122;13.606;2023-02-03T07:11:37;100189.97;;;5.71;63.55
68656;BME280;55638;51.122;13.606;2023-02-03T07:13:09;100201.47;;;5.73;63.57
68656;BME280;55638;51.122;13.606;2023-02-03T07:14:40;100184.56;;;5.73;63.79
68656;BME280;55638;51.122;13.606;2023-02-03T07:16:13;100184.56;;;5.73;63.59
68656;BME280;55638;51.122;13.606;2023-02-03T07:17:46;100187.88;;;5.76;63.53
68656;BME280;55638;51.122;13.606;2023-02-03T07:19:25;100180.81;;;5.75;63.73
68656;BME280;55638;51.122;13.606;2023-02-03T07:20:57;100182.53;;;5.76;63.57
68656;BME280;55638;51.122;13.606;2023-02-03T07:22:28;100184.25;;;5.77;63.57
68656;BME280;55638;51.122;13.606;2023-02-03T07:24:00;100185.88;;;5.80;63.50
68656;BME280;55638;51.122;13.606;2023-02-03T07:25:33;100174.31;;;5.80;63.55
68656;BME280;55638;51.122;13.606;2023-02-03T07:27:05;100177.84;;;5.80;63.67
68656;BME280;55638;51.122;13.606;2023-02-03T07:28:37;100180.34;;;5.83;63.54
68656;BME280;55638;51.122;13.606;2023-02-03T07:30:09;100181.19;;;5.84;63.61
68656;BME280;55638;51.122;13.606;2023-02-03T07:31:41;100179.47;;;5.83;63.52
68656;BME280;55638;51.122;13.606;2023-02-03T07:33:13;100185.56;;;5.85;63.47
68656;BME280;55638;51.122;13.606;2023-02-03T07:34:45;100177.47;;;5.86;63.42
68656;BME280;55638;51.122;13.606;2023-02-03T07:36:17;100194.38;;;5.87;63.46
68656;BME280;55638;51.122;13.606;2023-02-03T07:37:48;100189.88;;;5.87;63.43
68656;BME280;55638;51.122;13.606;2023-02-03T07:39:20;100178.84;;;5.92;63.45
68656;BME280;55638;51.122;13.606;2023-02-03T07:40:52;100181.47;;;5.93;63.50
68656;BME280;55638;51.122;13.606;2023-02-03T07:42:24;100178.78;;;5.93;63.32
68656;BME280;55638;51.122;13.606;2023-02-03T07:43:56;100172.38;;;5.96;63.32
68656;BME280;55638;51.122;13.606;2023-02-03T07:45:28;100169.59;;;5.97;63.24
68656;BME280;55638;51.122;13.606;2023-02-03T07:46:59;100171.41;;;5.97;63.40
68656;BME280;55638;51.122;13.606;2023-02-03T07:48:31;100183.94;;;5.96;63.34
68656;BME280;55638;51.122;13.606;2023-02-03T07:50:06;100168.66;;;5.98;63.27
68656;BME280;55638;51.122;13.606;2023-02-03T07:51:38;100170.38;;;5.99;63.01
68656;BME280;55638;51.122;13.606;2023-02-03T07:53:09;100170.44;;;5.98;63.06
68656;BME280;55638;51.122;13.606;2023-02-03T07:54:41;100166.84;;;5.99;62.92
68656;BME280;55638;51.122;13.606;2023-02-03T07:56:13;100176.56;;;6.00;63.05
68656;BME280;55638;51.122;13.606;2023-02-03T07:57:45;100165.97;;;5.98;62.88
68656;BME280;55638;51.122;13.606;2023-02-03T07:59:16;100174.09;;;5.97;62.87
68656;BME280;55638;51.122;13.606;2023-02-03T08:00:48;100168.75;;;5.97;62.80
68656;BME280;55638;51.122;13.606;2023-02-03T08:02:20;100159.94;;;5.95;62.93
68656;BME280;55638;51.122;13.606;2023-02-03T08:03:52;100149.34;;;5.93;63.01
68656;BME280;55638;51.122;13.606;2023-02-03T08:05:25;100157.47;;;5.92;62.93
68656;BME280;55638;51.122;13.606;2023-02-03T08:06:57;100152.22;;;5.90;63.10
68656;BME280;55638;51.122;13.606;2023-02-03T08:08:30;100160.38;;;5.89;63.03
68656;BME280;55638;51.122;13.606;2023-02-03T08:10:02;100148.88;;;5.87;63.04
68656;BME280;55638;51.122;13.606;2023-02-03T08:11:34;100158.81;;;5.85;63.25
68656;BME280;55638;51.122;13.606;2023-02-03T08:13:06;100156.16;;;5.85;63.17
68656;BME280;55638;51.122;13.606;2023-02-03T08:14:38;100158.06;;;5.83;63.11
68656;BME280;55638;51.122;13.606;2023-02-03T08:16:10;100154.63;;;5.81;63.21
68656;BME280;55638;51.122;13.606;2023-02-03T08:17:42;100162.66;;;5.81;63.21
68656;BME280;55638;51.122;13.606;2023-02-03T08:19:15;100143.16;;;5.79;63.33
68656;BME280;55638;51.122;13.606;2023-02-03T08:20:46;100142.31;;;5.78;63.43
68656;BME280;55638;51.122;13.606;2023-02-03T08:22:18;100138.69;;;5.79;63.37
68656;BME280;55638;51.122;13.606;2023-02-03T08:23:50;100151.19;;;5.79;63.34
68656;BME280;55638;51.122;13.606;2023-02-03T08:25:22;100134.19;;;5.80;63.43
68656;BME280;55638;51.122;13.606;2023-02-03T08:26:54;100151.09;;;5.80;63.33
68656;BME280;55638;51.122;13.606;2023-02-03T08:28:25;100145.84;;;5.79;63.34